»·PEaware :: AUZ081 KLAS-PHNL

AUZ081 :: KLAS-PHNL

FLIGHT INFORMATION

Flight Status: Arrived
Operator:
Australian Airlines
More flights by this operator :: More flights under this callsign
Pilot: Kim E. (65)
Aircraft: BOEING 747-400 (WINGLETS)
(B744)
More flights by this aircraft type
Origin: KLAS McCarran Intl
United States
Destination: PHNL Honolulu Intl
United States
More flights between these airports :: More routes between these airports
Route: BOACH5 HEC J60 LAX DINTY R576 DENNS MAGGI3
File this flight plan on PilotEdge
Remarks:
Altitude:
(Current/Filed)
400ft
Speed:
(Current/Filed)
505kts
Departed: 02-Nov-14 12:29 PM
Arrived: 02-Nov-14 05:59 PM
Distance/Time
Traveled:
2396nm/5:30
Distance/Time
To Go:
Arrived

Flight Plot

Page will automatically refresh every two minutes.


Map Options




Map Legend


Flown Route
Filed Route
Departure Airport
Arrival Airport
Navaid (VOR, NDB)
Fix

Horizontal Profiles

Position Reports

Time Latitude Longitude Heading Altitude Ground
Speed
02-Nov-14 11:38 36.079778 -115.135295 356 2193ft 0kts
02-Nov-14 11:39 36.079778 -115.135295 356 2193ft 0kts
02-Nov-14 11:40 36.079778 -115.135295 356 2193ft 0kts
02-Nov-14 11:41 36.079778 -115.135295 356 2193ft 0kts
02-Nov-14 11:42 36.079778 -115.135295 356 2193ft 0kts
02-Nov-14 11:43 36.079778 -115.135295 356 2193ft 0kts
02-Nov-14 11:44 36.079778 -115.135295 356 2193ft 0kts
02-Nov-14 11:45 36.079778 -115.135295 356 2193ft 0kts
02-Nov-14 11:46 36.079778 -115.135295 356 2193ft 0kts
02-Nov-14 11:47 36.079778 -115.135295 356 2193ft 0kts
02-Nov-14 11:48 36.079778 -115.135295 356 2193ft 0kts
02-Nov-14 11:49 36.079778 -115.135295 356 2193ft 0kts
02-Nov-14 11:50 36.079778 -115.135295 356 2193ft 0kts
02-Nov-14 11:51 36.079778 -115.135295 356 2193ft 0kts
02-Nov-14 11:52 36.079778 -115.135295 356 2193ft 0kts
02-Nov-14 11:53 36.079778 -115.135295 356 2193ft 0kts
02-Nov-14 11:54 36.079778 -115.135295 356 2193ft 0kts
02-Nov-14 11:55 36.079778 -115.135295 356 2193ft 0kts
02-Nov-14 11:56 36.079778 -115.135295 356 2193ft 0kts
02-Nov-14 11:57 36.079778 -115.135295 356 2193ft 0kts
02-Nov-14 11:58 36.079778 -115.135295 356 2193ft 0kts
02-Nov-14 11:59 36.079778 -115.135295 356 2193ft 0kts
02-Nov-14 12:00 36.079778 -115.135295 356 2193ft 0kts
02-Nov-14 12:01 36.079778 -115.135295 356 2193ft 0kts
02-Nov-14 12:02 36.079778 -115.135295 356 2193ft 0kts
02-Nov-14 12:03 36.079778 -115.135295 356 2193ft 0kts
02-Nov-14 12:04 36.079778 -115.135295 356 2193ft 0kts
02-Nov-14 12:05 36.079778 -115.135295 356 2193ft 0kts
02-Nov-14 12:06 36.079778 -115.135295 356 2193ft 0kts
02-Nov-14 12:07 36.079778 -115.135295 356 2193ft 0kts
02-Nov-14 12:08 36.079778 -115.135295 356 2193ft 0kts
02-Nov-14 12:09 36.079667 -115.135287 356 2193ft 2kts
02-Nov-14 12:10 36.078977 -115.135625 61 2193ft 2kts
02-Nov-14 12:11 36.078900 -115.135950 85 2193ft 0kts
02-Nov-14 12:12 36.078900 -115.135950 85 2193ft 0kts
02-Nov-14 12:13 36.078900 -115.135949 85 2193ft 0kts
02-Nov-14 12:14 36.078907 -115.135529 111 2193ft 2kts
02-Nov-14 12:15 36.078322 -115.136424 271 2193ft 10kts
02-Nov-14 12:16 36.078278 -115.142851 272 2193ft 22kts
02-Nov-14 12:17 36.078306 -115.143685 272 2193ft 0kts
02-Nov-14 12:18 36.078320 -115.144040 272 2193ft 7kts
02-Nov-14 12:19 36.078503 -115.147611 274 2193ft 15kts
02-Nov-14 12:20 36.078761 -115.152716 272 2193ft 12kts
02-Nov-14 12:21 36.082390 -115.155415 334 2193ft 20kts
02-Nov-14 12:22 36.087343 -115.157724 24 2193ft 16kts
02-Nov-14 12:23 36.091879 -115.155223 24 2193ft 16kts
02-Nov-14 12:24 36.096309 -115.152695 24 2193ft 12kts
02-Nov-14 12:25 36.097982 -115.152457 293 2193ft 0kts
02-Nov-14 12:26 36.098273 -115.153687 223 2193ft 5kts
02-Nov-14 12:27 36.085151 -115.161183 205 2193ft 153kts
02-Nov-14 12:28 36.037705 -115.188411 202 4012ft 213kts
02-Nov-14 12:29 35.992278 -115.252942 241 5372ft 286kts
02-Nov-14 12:30 35.931199 -115.307645 185 7244ft 283kts
02-Nov-14 12:31 35.850201 -115.313371 176 9710ft 290kts
02-Nov-14 12:32 35.764679 -115.304535 175 11237ft 342kts
02-Nov-14 12:33 35.664851 -115.323849 214 13141ft 392kts
02-Nov-14 12:34 35.584583 -115.419979 230 16511ft 415kts
02-Nov-14 12:35 35.504459 -115.527387 230 19637ft 437kts
02-Nov-14 12:36 35.421129 -115.639607 226 22000ft 465kts
02-Nov-14 12:37 35.331317 -115.758636 229 24628ft 473kts
02-Nov-14 12:38 35.243341 -115.875428 232 27616ft 469kts
02-Nov-14 12:39 35.154044 -115.994101 232 29358ft 482kts
02-Nov-14 12:40 35.061414 -116.116115 231 30903ft 494kts
02-Nov-14 12:41 34.967728 -116.239094 231 32692ft 494kts
02-Nov-14 12:42 34.874256 -116.361554 231 34330ft 491kts
02-Nov-14 12:43 34.780117 -116.483457 230 35598ft 493kts
02-Nov-14 12:44 34.684317 -116.601146 229 36751ft 491kts
02-Nov-14 12:45 34.587329 -116.719977 229 37593ft 494kts
02-Nov-14 12:46 34.490638 -116.838254 229 38480ft 492kts
02-Nov-14 12:47 34.393331 -116.957338 229 38916ft 499kts
02-Nov-14 12:48 34.297973 -117.072928 229 39888ft 478kts
02-Nov-14 12:49 34.204286 -117.186076 228 39974ft 479kts
02-Nov-14 12:50 34.109702 -117.300085 228 39982ft 477kts
02-Nov-14 12:51 34.016022 -117.412947 228 39986ft 475kts
02-Nov-14 12:52 33.931140 -117.533065 253 40012ft 460kts
02-Nov-14 12:53 33.920860 -117.684281 273 40023ft 454kts
02-Nov-14 12:54 33.923644 -117.837077 273 40023ft 457kts
02-Nov-14 12:55 33.926429 -117.990354 273 39985ft 456kts
02-Nov-14 12:56 33.928878 -118.143908 273 40003ft 460kts
02-Nov-14 12:57 33.931116 -118.298993 273 40014ft 463kts
02-Nov-14 12:58 33.930151 -118.453983 267 40018ft 466kts
02-Nov-14 12:59 33.916483 -118.608511 266 40010ft 463kts
02-Nov-14 13:00 33.901644 -118.764895 266 40011ft 462kts
02-Nov-14 13:01 33.887315 -118.918905 266 40007ft 464kts
02-Nov-14 13:02 33.875010 -119.047505 266 40004ft 463kts
02-Nov-14 13:03 33.859825 -119.201888 265 40008ft 467kts
02-Nov-14 13:04 33.844878 -119.357629 266 40014ft 471kts
02-Nov-14 13:05 33.829085 -119.514747 265 40013ft 472kts
02-Nov-14 13:06 33.813052 -119.672206 266 39995ft 473kts
02-Nov-14 13:07 33.797128 -119.829811 265 39989ft 474kts
02-Nov-14 13:08 33.780777 -119.985830 265 39989ft 470kts
02-Nov-14 13:09 33.764832 -120.141071 264 40000ft 468kts
02-Nov-14 13:10 33.748125 -120.297587 264 40005ft 466kts
02-Nov-14 13:11 33.731290 -120.453463 265 40012ft 469kts
02-Nov-14 13:12 33.714562 -120.608767 265 40011ft 471kts
02-Nov-14 13:13 33.697174 -120.765032 264 40010ft 470kts
02-Nov-14 13:14 33.680031 -120.921472 264 40011ft 473kts
02-Nov-14 13:15 33.662266 -121.078702 264 40011ft 473kts
02-Nov-14 13:16 33.644402 -121.234011 264 40014ft 470kts
02-Nov-14 13:17 33.626737 -121.390435 264 40019ft 470kts
02-Nov-14 13:18 33.608399 -121.545824 264 40022ft 469kts
02-Nov-14 13:19 33.590356 -121.700462 264 40022ft 468kts
02-Nov-14 13:20 33.571901 -121.855243 264 40024ft 468kts
02-Nov-14 13:21 33.553055 -122.010628 263 40025ft 470kts
02-Nov-14 13:22 33.534339 -122.167179 263 40025ft 473kts
02-Nov-14 13:23 33.515164 -122.322604 263 40025ft 473kts
02-Nov-14 13:24 33.495837 -122.478991 263 40025ft 473kts
02-Nov-14 13:25 33.472270 -122.634502 258 40024ft 474kts
02-Nov-14 13:26 33.440752 -122.787580 258 40025ft 473kts
02-Nov-14 13:27 33.408755 -122.940772 258 40025ft 473kts
02-Nov-14 13:28 33.377097 -123.093890 258 40026ft 473kts
02-Nov-14 13:29 33.344697 -123.247398 258 40026ft 473kts
02-Nov-14 13:30 33.312470 -123.399755 258 40025ft 472kts
02-Nov-14 13:31 33.280024 -123.552539 258 40025ft 474kts
02-Nov-14 13:32 33.246878 -123.706110 258 40025ft 476kts
02-Nov-14 13:33 33.214230 -123.858737 257 40022ft 472kts
02-Nov-14 13:34 33.181023 -124.011343 257 40023ft 472kts
02-Nov-14 13:35 33.147934 -124.162841 257 40022ft 472kts
02-Nov-14 13:36 33.114836 -124.314096 257 40020ft 469kts
02-Nov-14 13:37 33.081443 -124.465245 257 40020ft 469kts
02-Nov-14 13:38 33.047783 -124.615819 256 40019ft 470kts
02-Nov-14 13:39 33.013634 -124.766714 256 40018ft 469kts
02-Nov-14 13:40 32.979198 -124.918053 257 40019ft 471kts
02-Nov-14 13:41 32.945408 -125.068345 256 40018ft 472kts
02-Nov-14 13:42 32.910694 -125.219238 256 40018ft 470kts
02-Nov-14 13:43 32.876280 -125.369755 256 40018ft 470kts
02-Nov-14 13:44 32.841688 -125.518969 256 40018ft 469kts
02-Nov-14 13:45 32.806339 -125.669380 256 40018ft 466kts
02-Nov-14 13:46 32.771942 -125.817854 256 40019ft 466kts
02-Nov-14 13:47 32.736844 -125.966086 256 40020ft 466kts
02-Nov-14 13:48 32.701959 -126.113847 256 40021ft 466kts
02-Nov-14 13:49 32.666502 -126.262871 255 40021ft 466kts
02-Nov-14 13:50 32.630751 -126.411070 255 40021ft 469kts
02-Nov-14 13:51 32.595015 -126.560514 255 40021ft 468kts
02-Nov-14 13:52 32.558933 -126.708597 255 40021ft 466kts
02-Nov-14 13:53 32.523039 -126.855862 256 40021ft 464kts
02-Nov-14 13:54 32.487198 -127.003319 255 40021ft 464kts
02-Nov-14 13:55 32.450859 -127.150405 255 40021ft 464kts
02-Nov-14 13:56 32.414562 -127.298078 255 40021ft 464kts
02-Nov-14 13:57 32.377895 -127.444775 255 40021ft 468kts
02-Nov-14 13:58 32.346832 -127.567762 255 40021ft 464kts
02-Nov-14 13:59 32.303777 -127.739999 255 40022ft 468kts
02-Nov-14 14:00 32.272728 -127.861975 255 40021ft 464kts
02-Nov-14 14:01 32.235612 -128.008270 255 40021ft 463kts
02-Nov-14 14:02 32.198461 -128.153733 255 40021ft 463kts
02-Nov-14 14:03 32.160844 -128.299137 254 40021ft 461kts
02-Nov-14 14:04 32.123527 -128.444712 255 40022ft 461kts
02-Nov-14 14:05 32.085735 -128.589417 254 40021ft 462kts
02-Nov-14 14:06 32.047807 -128.734308 255 40021ft 463kts
02-Nov-14 14:07 32.009736 -128.880102 254 40021ft 465kts
02-Nov-14 14:08 31.971043 -129.025901 254 40021ft 463kts
02-Nov-14 14:09 31.932782 -129.171055 254 40021ft 463kts
02-Nov-14 14:10 31.894251 -129.315247 254 40021ft 462kts
02-Nov-14 14:11 31.855290 -129.459778 254 40021ft 462kts
02-Nov-14 14:12 31.816693 -129.604194 254 40021ft 461kts
02-Nov-14 14:13 31.777467 -129.748384 254 40021ft 460kts
02-Nov-14 14:14 31.738729 -129.891293 254 40021ft 462kts
02-Nov-14 14:15 31.699284 -130.035602 254 40021ft 463kts
02-Nov-14 14:16 31.659308 -130.180281 254 40018ft 465kts
02-Nov-14 14:17 31.619495 -130.325595 254 40018ft 464kts
02-Nov-14 14:18 31.579521 -130.469133 253 40018ft 463kts
02-Nov-14 14:19 31.539343 -130.612962 255 40003ft 464kts
02-Nov-14 14:20 31.499274 -130.756535 254 39997ft 462kts
02-Nov-14 14:21 31.459186 -130.899102 254 39985ft 461kts
02-Nov-14 14:22 31.419041 -131.041898 254 39990ft 462kts
02-Nov-14 14:23 31.378236 -131.185143 254 39986ft 462kts
02-Nov-14 14:24 31.337315 -131.327873 254 39981ft 464kts
02-Nov-14 14:25 31.296250 -131.471900 254 39979ft 465kts
02-Nov-14 14:26 31.254859 -131.614878 254 39978ft 465kts
02-Nov-14 14:27 31.213637 -131.757814 254 39978ft 465kts
02-Nov-14 14:28 31.171725 -131.901737 254 39977ft 464kts
02-Nov-14 14:29 31.130050 -132.044280 254 39977ft 462kts
02-Nov-14 14:30 31.088514 -132.186032 254 39977ft 461kts
02-Nov-14 14:31 31.046508 -132.327492 254 39977ft 461kts
02-Nov-14 14:32 31.004321 -132.468788 254 39977ft 464kts
02-Nov-14 14:33 30.962070 -132.611359 254 39977ft 465kts
02-Nov-14 14:34 30.919229 -132.753998 253 39977ft 467kts
02-Nov-14 14:35 30.876061 -132.897017 254 39977ft 466kts
02-Nov-14 14:36 30.833118 -133.039968 253 39977ft 465kts
02-Nov-14 14:37 30.789837 -133.181841 253 39977ft 463kts
02-Nov-14 14:38 30.746895 -133.323342 253 39977ft 463kts
02-Nov-14 14:39 30.703742 -133.464022 253 39977ft 461kts
02-Nov-14 14:40 30.660570 -133.603563 253 39977ft 463kts
02-Nov-14 14:41 30.616718 -133.746551 253 39977ft 468kts
02-Nov-14 14:42 30.572541 -133.888287 253 39976ft 464kts
02-Nov-14 14:43 30.528507 -134.029881 253 39977ft 465kts
02-Nov-14 14:44 30.484384 -134.171357 253 39977ft 468kts
02-Nov-14 14:45 30.439733 -134.313066 253 39977ft 466kts
02-Nov-14 14:46 30.395516 -134.454059 253 39977ft 464kts
02-Nov-14 14:47 30.350990 -134.593952 253 39977ft 463kts
02-Nov-14 14:48 30.306417 -134.733815 253 39977ft 461kts
02-Nov-14 14:49 30.262057 -134.872928 253 39977ft 462kts
02-Nov-14 14:50 30.216622 -135.013682 252 39977ft 465kts
02-Nov-14 14:51 30.171691 -135.153701 252 39977ft 467kts
02-Nov-14 14:52 30.126090 -135.294123 252 39975ft 464kts
02-Nov-14 14:53 30.080356 -135.434117 253 39974ft 466kts
02-Nov-14 14:54 30.034653 -135.574924 252 39972ft 466kts
02-Nov-14 14:55 29.988692 -135.714422 252 39973ft 464kts
02-Nov-14 14:56 29.942911 -135.853940 252 39970ft 462kts
02-Nov-14 14:57 29.897182 -135.992040 252 39956ft 461kts
02-Nov-14 14:58 29.851001 -136.130420 252 39964ft 464kts
02-Nov-14 14:59 29.804997 -136.269266 252 39960ft 466kts
02-Nov-14 15:00 29.757795 -136.409724 252 39955ft 468kts
02-Nov-14 15:01 29.710897 -136.549473 252 39950ft 470kts
02-Nov-14 15:02 29.663853 -136.688985 252 39950ft 466kts
02-Nov-14 15:03 29.616625 -136.827703 252 39950ft 463kts
02-Nov-14 15:04 29.577546 -136.943329 252 39949ft 464kts
02-Nov-14 15:05 29.530483 -137.080914 252 39948ft 462kts
02-Nov-14 15:06 29.483504 -137.217777 252 39948ft 461kts
02-Nov-14 15:07 29.436558 -137.355464 252 39947ft 466kts
02-Nov-14 15:08 29.388398 -137.494378 252 39947ft 469kts
02-Nov-14 15:09 29.340213 -137.633795 252 39945ft 468kts
02-Nov-14 15:10 29.291948 -137.772344 251 39946ft 469kts
02-Nov-14 15:11 29.243207 -137.911189 251 39943ft 468kts
02-Nov-14 15:12 29.195119 -138.049015 251 39942ft 466kts
02-Nov-14 15:13 29.146704 -138.186022 251 39942ft 463kts
02-Nov-14 15:14 29.098226 -138.323283 252 39942ft 463kts
02-Nov-14 15:15 29.049761 -138.459958 251 39941ft 461kts
02-Nov-14 15:16 29.000944 -138.596561 251 39941ft 467kts
02-Nov-14 15:17 28.952039 -138.733962 251 39940ft 467kts
02-Nov-14 15:18 28.902349 -138.872084 251 39940ft 469kts
02-Nov-14 15:19 28.852614 -139.010121 251 39940ft 469kts
02-Nov-14 15:20 28.803184 -139.147115 251 39940ft 465kts
02-Nov-14 15:21 28.753679 -139.283396 251 39940ft 466kts
02-Nov-14 15:22 28.703916 -139.420363 251 39940ft 464kts
02-Nov-14 15:23 28.653927 -139.556118 251 39940ft 463kts
02-Nov-14 15:24 28.604400 -139.689985 251 39940ft 462kts
02-Nov-14 15:25 28.554287 -139.825618 251 39940ft 463kts
02-Nov-14 15:26 28.504013 -139.961339 251 39940ft 466kts
02-Nov-14 15:27 28.453245 -140.097818 250 39941ft 471kts
02-Nov-14 15:28 28.402376 -140.234694 250 39940ft 469kts
02-Nov-14 15:29 28.351247 -140.370686 250 39940ft 467kts
02-Nov-14 15:30 28.300157 -140.506201 251 39940ft 465kts
02-Nov-14 15:31 28.249157 -140.641804 250 39948ft 465kts
02-Nov-14 15:32 28.197949 -140.776383 250 39947ft 465kts
02-Nov-14 15:33 28.146986 -140.910831 250 39947ft 461kts
02-Nov-14 15:34 28.095460 -141.045513 249 40011ft 471kts
02-Nov-14 15:35 28.042926 -141.182680 249 40008ft 471kts
02-Nov-14 15:36 27.990698 -141.320599 249 40017ft 475kts
02-Nov-14 15:37 27.937509 -141.456449 248 40013ft 476kts
02-Nov-14 15:38 27.884201 -141.594223 248 40016ft 475kts
02-Nov-14 15:39 27.831529 -141.731039 249 40016ft 474kts
02-Nov-14 15:40 27.777450 -141.867829 251 40016ft 473kts
02-Nov-14 15:41 27.724892 -142.003343 248 40018ft 472kts
02-Nov-14 15:42 27.671207 -142.140166 248 40017ft 473kts
02-Nov-14 15:43 27.617959 -142.275957 249 40029ft 474kts
02-Nov-14 15:44 27.567173 -142.409491 247 40029ft 468kts
02-Nov-14 15:45 27.511413 -142.545500 243 40122ft 481kts
02-Nov-14 15:46 27.455624 -142.684678 245 40180ft 492kts
02-Nov-14 15:47 27.399357 -142.824999 245 40182ft 491kts
02-Nov-14 15:48 27.343213 -142.965345 245 40183ft 491kts
02-Nov-14 15:49 27.287183 -143.104473 245 40184ft 490kts
02-Nov-14 15:50 27.230277 -143.244887 245 40184ft 491kts
02-Nov-14 15:51 27.173878 -143.384743 245 40184ft 491kts
02-Nov-14 15:52 27.116953 -143.524364 244 40184ft 491kts
02-Nov-14 15:53 27.060225 -143.663954 244 40184ft 490kts
02-Nov-14 15:54 27.003250 -143.802894 244 40184ft 490kts
02-Nov-14 15:55 26.945978 -143.942056 245 40184ft 490kts
02-Nov-14 15:56 26.888789 -144.081226 244 40184ft 490kts
02-Nov-14 15:57 26.831118 -144.220204 244 40184ft 490kts
02-Nov-14 15:58 26.774146 -144.358010 244 40184ft 490kts
02-Nov-14 15:59 26.716108 -144.497103 244 40184ft 490kts
02-Nov-14 16:00 26.658142 -144.636061 244 40184ft 490kts
02-Nov-14 16:01 26.600181 -144.774503 244 40184ft 490kts
02-Nov-14 16:02 26.542104 -144.912168 243 40184ft 490kts
02-Nov-14 16:03 26.483964 -145.050795 244 40184ft 490kts
02-Nov-14 16:04 26.425551 -145.188713 243 40184ft 490kts
02-Nov-14 16:05 26.376766 -145.303677 244 40183ft 490kts
02-Nov-14 16:06 26.318428 -145.440856 243 40184ft 490kts
02-Nov-14 16:07 26.259596 -145.578338 243 40183ft 490kts
02-Nov-14 16:08 26.201105 -145.715300 243 40183ft 490kts
02-Nov-14 16:09 26.141828 -145.852943 243 40184ft 490kts
02-Nov-14 16:10 26.082640 -145.990038 243 40184ft 490kts
02-Nov-14 16:11 26.023545 -146.126957 243 40184ft 490kts
02-Nov-14 16:12 25.964338 -146.263457 243 40184ft 490kts
02-Nov-14 16:13 25.904776 -146.399935 243 40184ft 490kts
02-Nov-14 16:14 25.846430 -146.533637 243 40184ft 490kts
02-Nov-14 16:15 25.787086 -146.669718 243 40183ft 490kts
02-Nov-14 16:16 25.727522 -146.805005 243 40184ft 490kts
02-Nov-14 16:17 25.667893 -146.940953 243 40183ft 490kts
02-Nov-14 16:18 25.607649 -147.077082 243 40183ft 490kts
02-Nov-14 16:19 25.547498 -147.212900 243 40183ft 490kts
02-Nov-14 16:20 25.487589 -147.348088 243 40183ft 490kts
02-Nov-14 16:21 25.427443 -147.482949 242 40183ft 490kts
02-Nov-14 16:22 25.366586 -147.619831 242 40183ft 490kts
02-Nov-14 16:23 25.305810 -147.755043 242 40183ft 490kts
02-Nov-14 16:24 25.245349 -147.889649 242 40183ft 490kts
02-Nov-14 16:25 25.184186 -148.025210 242 40183ft 490kts
02-Nov-14 16:26 25.123284 -148.159354 242 40183ft 490kts
02-Nov-14 16:27 25.062345 -148.294181 242 40183ft 490kts
02-Nov-14 16:28 25.000712 -148.429205 242 40183ft 490kts
02-Nov-14 16:29 24.939890 -148.562884 242 40183ft 490kts
02-Nov-14 16:30 24.878149 -148.697641 242 40183ft 490kts
02-Nov-14 16:31 24.816847 -148.830746 242 40183ft 490kts
02-Nov-14 16:32 24.754936 -148.965661 242 40182ft 490kts
02-Nov-14 16:33 24.697853 -149.088898 242 40182ft 490kts
02-Nov-14 16:34 24.636044 -149.222663 242 40182ft 490kts
02-Nov-14 16:35 24.573954 -149.356167 242 40182ft 490kts
02-Nov-14 16:36 24.511774 -149.489322 242 40182ft 490kts
02-Nov-14 16:37 24.449882 -149.622864 242 40182ft 489kts
02-Nov-14 16:38 24.387185 -149.756380 242 40182ft 490kts
02-Nov-14 16:39 24.325043 -149.889009 242 40180ft 491kts
02-Nov-14 16:40 24.261812 -150.022978 242 40158ft 492kts
02-Nov-14 16:41 24.198927 -150.155995 242 40151ft 491kts
02-Nov-14 16:42 24.135978 -150.289018 242 40149ft 492kts
02-Nov-14 16:43 24.072871 -150.421435 242 40147ft 492kts
02-Nov-14 16:44 24.009491 -150.555000 242 40146ft 492kts
02-Nov-14 16:45 23.946113 -150.687401 242 40145ft 492kts
02-Nov-14 16:46 23.882329 -150.820621 242 40144ft 492kts
02-Nov-14 16:47 23.818829 -150.952782 242 40144ft 492kts
02-Nov-14 16:48 23.754628 -151.085652 241 40144ft 492kts
02-Nov-14 16:49 23.690908 -151.217976 241 40144ft 492kts
02-Nov-14 16:50 23.627154 -151.349274 241 40144ft 492kts
02-Nov-14 16:51 23.562876 -151.481832 241 40144ft 492kts
02-Nov-14 16:52 23.498644 -151.613750 241 40144ft 492kts
02-Nov-14 16:53 23.434121 -151.745946 241 40143ft 491kts
02-Nov-14 16:54 23.370205 -151.876862 241 40144ft 492kts
02-Nov-14 16:55 23.305286 -152.008799 241 40144ft 492kts
02-Nov-14 16:56 23.240714 -152.140251 241 40144ft 492kts
02-Nov-14 16:57 23.176046 -152.271122 241 40143ft 491kts
02-Nov-14 16:58 23.111188 -152.402064 241 40144ft 491kts
02-Nov-14 16:59 23.057241 -152.510976 241 40144ft 491kts
02-Nov-14 17:00 22.980899 -152.664017 241 40144ft 491kts
02-Nov-14 17:01 22.915251 -152.794366 241 40143ft 491kts
02-Nov-14 17:02 22.860422 -152.902980 241 40143ft 491kts
02-Nov-14 17:03 22.795020 -153.032965 241 40143ft 491kts
02-Nov-14 17:04 22.729045 -153.163093 241 40144ft 491kts
02-Nov-14 17:05 22.663179 -153.293204 241 40147ft 493kts
02-Nov-14 17:06 22.596789 -153.423620 241 40144ft 494kts
02-Nov-14 17:07 22.529961 -153.554772 241 40142ft 491kts
02-Nov-14 17:08 22.464372 -153.682418 243 40085ft 462kts
02-Nov-14 17:09 22.404241 -153.801040 240 40099ft 458kts
02-Nov-14 17:10 22.366677 -153.931699 267 40096ft 449kts
02-Nov-14 17:11 22.367419 -154.068325 269 40072ft 464kts
02-Nov-14 17:12 22.369910 -154.205124 271 40054ft 454kts
02-Nov-14 17:13 22.372845 -154.343945 270 40061ft 455kts
02-Nov-14 17:14 22.375312 -154.480320 271 40058ft 454kts
02-Nov-14 17:15 22.377696 -154.617066 271 40057ft 452kts
02-Nov-14 17:16 22.380226 -154.754003 271 40061ft 455kts
02-Nov-14 17:17 22.382331 -154.890599 271 40055ft 453kts
02-Nov-14 17:18 22.384497 -155.026246 271 40062ft 457kts
02-Nov-14 17:19 22.386496 -155.163757 271 40055ft 458kts
02-Nov-14 17:20 22.388274 -155.301934 271 39975ft 459kts
02-Nov-14 17:21 22.390184 -155.439002 271 37099ft 449kts
02-Nov-14 17:22 22.391772 -155.570902 271 34782ft 425kts
02-Nov-14 17:23 22.393068 -155.697095 272 32263ft 414kts
02-Nov-14 17:24 22.394582 -155.819517 271 30060ft 398kts
02-Nov-14 17:25 22.395763 -155.935755 267 28253ft 383kts
02-Nov-14 17:26 22.396705 -156.056686 267 26181ft 398kts
02-Nov-14 17:27 22.397739 -156.179111 268 23178ft 408kts
02-Nov-14 17:28 22.364262 -156.288302 224 21040ft 381kts
02-Nov-14 17:29 22.296668 -156.374530 229 19010ft 370kts
02-Nov-14 17:30 22.232135 -156.458463 232 17253ft 352kts
02-Nov-14 17:31 22.171875 -156.536906 231 15379ft 368kts
02-Nov-14 17:32 22.106110 -156.622170 228 12944ft 368kts
02-Nov-14 17:33 22.040871 -156.706831 228 11129ft 345kts
02-Nov-14 17:34 21.983902 -156.780453 227 10187ft 299kts
02-Nov-14 17:35 21.934319 -156.844476 227 9089ft 263kts
02-Nov-14 17:36 21.889713 -156.902060 227 7653ft 246kts
02-Nov-14 17:37 21.845635 -156.959002 226 7107ft 246kts
02-Nov-14 17:38 21.801262 -157.016123 226 6946ft 249kts
02-Nov-14 17:39 21.756661 -157.073506 227 6847ft 250kts
02-Nov-14 17:40 21.712003 -157.130909 227 6756ft 250kts
02-Nov-14 17:41 21.667481 -157.188085 227 6665ft 251kts
02-Nov-14 17:42 21.622219 -157.246167 227 6573ft 251kts
02-Nov-14 17:43 21.577518 -157.303487 227 6491ft 251kts
02-Nov-14 17:44 21.532077 -157.361741 228 6409ft 253kts
02-Nov-14 17:45 21.489653 -157.416168 228 6317ft 222kts
02-Nov-14 17:46 21.453413 -157.462679 227 6242ft 188kts
02-Nov-14 17:47 21.419770 -157.505861 227 6048ft 189kts
02-Nov-14 17:48 21.386183 -157.548767 227 5686ft 186kts
02-Nov-14 17:49 21.352810 -157.591342 227 5313ft 185kts
02-Nov-14 17:50 21.319609 -157.633630 227 4878ft 180kts
02-Nov-14 17:51 21.286807 -157.675407 227 4389ft 181kts
02-Nov-14 17:52 21.270306 -157.723861 272 3595ft 182kts
02-Nov-14 17:53 21.277768 -157.776578 281 3039ft 179kts
02-Nov-14 17:54 21.288985 -157.813320 297 3051ft 143kts
02-Nov-14 17:55 21.308411 -157.870430 276 1176ft 190kts
02-Nov-14 17:56 21.306815 -157.914562 275 60ft 158kts
02-Nov-14 17:57 21.308633 -157.938122 299 25ft 33kts
02-Nov-14 17:58 21.309544 -157.944970 270 25ft 9kts
02-Nov-14 17:59 21.313321 -157.946106 355 25ft 27kts
02-Nov-14 18:00 21.320256 -157.944924 30 25ft 23kts
02-Nov-14 18:01 21.325080 -157.941877 31 25ft 18kts
02-Nov-14 18:02 21.327422 -157.938357 88 25ft 14kts
02-Nov-14 18:03 21.327433 -157.933611 89 25ft 17kts
02-Nov-14 18:04 21.327223 -157.929021 97 25ft 7kts
02-Nov-14 18:05 21.327793 -157.926716 92 25ft 8kts
02-Nov-14 18:06 21.328798 -157.925770 358 25ft 1kts
02-Nov-14 18:07 21.328811 -157.925771 358 25ft 0kts
02-Nov-14 18:08 21.328811 -157.925771 358 25ft 0kts
02-Nov-14 18:09 21.328811 -157.925771 358 25ft 0kts

Navigation Log

Ident Type
1. KLAS Airport
2. BOACH Fix
3. HEC Navaid
4. RESOR Fix
5. CIVET Fix
6. PDZ Navaid
7. LAX Navaid
8. DINTY Fix
9. DUETS Fix
10. DADIE Fix
11. DIALO Fix
12. DUSAC Fix
13. DRAYK Fix
14. DENNS Fix
15. SOLCE Fix
16. MAGGI Fix
17. BAMBO Fix
18. GRITL Fix
19. CKH Navaid
20. PHNL Airport